FLUGWETTER MÜNCHEN AIRPORT

[source: ADDS]
METAR
EDDM 272020Z VRB01KT CAVOK 01/M01 Q1001 NOSIG =
TAF
TAF EDDM 271700Z 2718/2824 12005KT CAVOK BECMG 2719/2723 21005KT BECMG 2804/2806 26015G25KT RA BKN013 BECMG 2809/2811 24010KT NSW FEW015 BKN030 BECMG 2812/2814 12005KT BECMG 2815/2817 27020G30KT RA BKN013 BECMG 2820/2822 25012KT NSW FEW015 BKN030 PROB30 TEMPO 2822/2824 2500 SHSNRA BKN008TCU =
SR / SS: 05:57 / 16:56 UTC (Tag 2017-02-27)

QR-Code dieser Seite

QR-Code dieser Seite